Decoded Metar for GEML (MELILLA in SPAIN) (IATA:MLN) | Meteo·Mobile Aviation Weather
aviador You're here:

GEML Decoded Metar

MELILLA in SPAIN
Report Time2019-02-23 22:30:00
UTC Time2019-02-23 22:42:28
Flight Rules vfr VFR
Wind010° at 01 kt
W.Decomp.*RWY 33: 0.8 kt HW 0.7 kt RCW
W.Rank010° ranks 22
Current wind is below 010° avg. (5.7)
Visibility9999 m
Phenomena:N/A
Clouds:N/A
Expected CloudBase > 1,200 ft AGL from Temp-Dew spread
CeilingNone
Temp13°C (ISA -2)
Dew Point10°C (82% RH)
AAT12.7°C
QNH1026 hPa
Density Alt-289 ft
Elevation180 ft
Report Wrong Elevation
Raw Report
GEML 232230Z AUTO 01001KT 9999 NCD 13/10 Q1026=

Extra information for GEML:More info

Metar Taf Metar & Taf Last 4 Metars F.Rules Stats Wind Profile Meteogram Temp Stats Airport Information Weather charts Add Link Nearby VenuesMetar ALERT Operation Metar Decoded Social comments